Terminal Aerodrome Forecast
Issued by NWS

Home | Current Version | Previous Version | Text Only | Print | Product List | Glossary On
Versions: 1 2 3 4 5 6 7 8 9 10 11 12 13 14 15 16 17 18 19 20 21 22 23 24 25 26 27 28 29 30 31 32 33 34 35
000
FTUS41 KBOX 221136
TAFFMH
TAF
KFMH 221136Z 2212/2312 03004KT P6SM SCT025 OVC050
     FM221400 05005KT P6SM OVC020
     FM221800 06007KT P6SM BKN010
     FM222100 08005KT P6SM BKN010
     FM230300 10009KT P6SM BKN015
     FM230600 10008KT P6SM OVC010
     FM231000 10011KT 2SM -SHRA OVC010=

USA.gov is the U.S. government's official web portal to all federal, state and local government web resources and services.